sensor_id;sensor_type;location;lat;lon;timestamp;P1;durP1;ratioP1;P2;durP2;ratioP2
4634;SDS011;2330;48.158;11.816;2024-03-08T00:02:14;14.00;;;12.80;;
4634;SDS011;2330;48.158;11.816;2024-03-08T00:04:41;14.80;;;13.50;;
4634;SDS011;2330;48.158;11.816;2024-03-08T00:07:08;14.55;;;13.27;;
4634;SDS011;2330;48.158;11.816;2024-03-08T00:09:35;13.70;;;12.50;;
4634;SDS011;2330;48.158;11.816;2024-03-08T00:12:02;14.45;;;13.15;;
4634;SDS011;2330;48.158;11.816;2024-03-08T00:14:29;13.93;;;12.82;;
4634;SDS011;2330;48.158;11.816;2024-03-08T00:16:56;15.07;;;13.60;;
4634;SDS011;2330;48.158;11.816;2024-03-08T00:19:23;14.70;;;13.50;;
4634;SDS011;2330;48.158;11.816;2024-03-08T00:21:50;15.30;;;13.90;;
4634;SDS011;2330;48.158;11.816;2024-03-08T00:24:16;15.15;;;13.80;;
4634;SDS011;2330;48.158;11.816;2024-03-08T00:26:43;14.38;;;13.18;;
4634;SDS011;2330;48.158;11.816;2024-03-08T00:29:10;13.80;;;12.70;;
4634;SDS011;2330;48.158;11.816;2024-03-08T00:31:37;13.77;;;12.68;;
4634;SDS011;2330;48.158;11.816;2024-03-08T00:34:04;14.02;;;12.73;;
4634;SDS011;2330;48.158;11.816;2024-03-08T00:36:30;14.27;;;13.05;;
4634;SDS011;2330;48.158;11.816;2024-03-08T00:38:57;15.05;;;13.75;;
4634;SDS011;2330;48.158;11.816;2024-03-08T00:41:27;14.30;;;13.07;;
4634;SDS011;2330;48.158;11.816;2024-03-08T00:43:54;15.98;;;14.48;;
4634;SDS011;2330;48.158;11.816;2024-03-08T00:46:21;14.75;;;13.45;;
4634;SDS011;2330;48.158;11.816;2024-03-08T00:48:48;15.00;;;13.70;;
4634;SDS011;2330;48.158;11.816;2024-03-08T00:51:15;14.80;;;13.48;;
4634;SDS011;2330;48.158;11.816;2024-03-08T00:53:42;15.35;;;14.10;;
4634;SDS011;2330;48.158;11.816;2024-03-08T00:56:09;14.18;;;12.77;;
4634;SDS011;2330;48.158;11.816;2024-03-08T00:58:36;14.77;;;13.38;;
4634;SDS011;2330;48.158;11.816;2024-03-08T01:01:03;14.90;;;13.60;;
4634;SDS011;2330;48.158;11.816;2024-03-08T01:03:31;15.25;;;13.77;;
4634;SDS011;2330;48.158;11.816;2024-03-08T01:05:58;15.50;;;14.23;;
4634;SDS011;2330;48.158;11.816;2024-03-08T01:08:27;14.80;;;13.55;;
4634;SDS011;2330;48.158;11.816;2024-03-08T01:10:54;15.63;;;14.32;;
4634;SDS011;2330;48.158;11.816;2024-03-08T01:13:22;15.90;;;14.30;;
4634;SDS011;2330;48.158;11.816;2024-03-08T01:15:49;14.93;;;13.63;;
4634;SDS011;2330;48.158;11.816;2024-03-08T01:18:15;15.73;;;14.35;;
4634;SDS011;2330;48.158;11.816;2024-03-08T01:20:43;17.58;;;15.98;;
4634;SDS011;2330;48.158;11.816;2024-03-08T01:23:09;15.25;;;13.90;;
4634;SDS011;2330;48.158;11.816;2024-03-08T01:25:36;17.80;;;16.20;;
4634;SDS011;2330;48.158;11.816;2024-03-08T01:28:03;16.17;;;14.80;;
4634;SDS011;2330;48.158;11.816;2024-03-08T01:30:30;15.63;;;14.25;;
4634;SDS011;2330;48.158;11.816;2024-03-08T01:32:58;17.27;;;15.73;;
4634;SDS011;2330;48.158;11.816;2024-03-08T01:35:25;15.57;;;14.18;;
4634;SDS011;2330;48.158;11.816;2024-03-08T01:37:53;16.55;;;15.02;;
4634;SDS011;2330;48.158;11.816;2024-03-08T01:40:20;16.92;;;15.35;;
4634;SDS011;2330;48.158;11.816;2024-03-08T01:42:47;16.40;;;15.00;;
4634;SDS011;2330;48.158;11.816;2024-03-08T01:45:14;17.08;;;15.57;;
4634;SDS011;2330;48.158;11.816;2024-03-08T01:47:41;16.95;;;15.45;;
4634;SDS011;2330;48.158;11.816;2024-03-08T01:50:08;17.65;;;16.05;;
4634;SDS011;2330;48.158;11.816;2024-03-08T01:52:35;16.95;;;15.55;;
4634;SDS011;2330;48.158;11.816;2024-03-08T01:55:03;16.95;;;15.45;;
4634;SDS011;2330;48.158;11.816;2024-03-08T01:57:33;17.10;;;15.60;;
4634;SDS011;2330;48.158;11.816;2024-03-08T02:00:01;17.17;;;15.60;;
4634;SDS011;2330;48.158;11.816;2024-03-08T02:02:34;16.75;;;15.38;;
4634;SDS011;2330;48.158;11.816;2024-03-08T02:05:03;18.13;;;16.52;;
4634;SDS011;2330;48.158;11.816;2024-03-08T02:07:31;16.95;;;15.45;;
4634;SDS011;2330;48.158;11.816;2024-03-08T02:09:58;16.60;;;15.18;;
4634;SDS011;2330;48.158;11.816;2024-03-08T02:12:25;17.63;;;16.10;;
4634;SDS011;2330;48.158;11.816;2024-03-08T02:14:53;19.27;;;15.43;;
4634;SDS011;2330;48.158;11.816;2024-03-08T02:17:20;16.67;;;15.15;;
4634;SDS011;2330;48.158;11.816;2024-03-08T02:19:47;16.25;;;14.80;;
4634;SDS011;2330;48.158;11.816;2024-03-08T02:22:14;18.92;;;17.17;;
4634;SDS011;2330;48.158;11.816;2024-03-08T02:24:41;16.73;;;15.23;;
4634;SDS011;2330;48.158;11.816;2024-03-08T02:27:07;17.23;;;15.63;;
4634;SDS011;2330;48.158;11.816;2024-03-08T02:29:38;17.60;;;16.13;;
4634;SDS011;2330;48.158;11.816;2024-03-08T02:32:07;16.55;;;15.20;;
4634;SDS011;2330;48.158;11.816;2024-03-08T02:34:33;18.00;;;16.40;;
4634;SDS011;2330;48.158;11.816;2024-03-08T02:37:01;18.48;;;16.65;;
4634;SDS011;2330;48.158;11.816;2024-03-08T02:39:27;18.38;;;16.55;;
4634;SDS011;2330;48.158;11.816;2024-03-08T02:41:54;18.02;;;16.50;;
4634;SDS011;2330;48.158;11.816;2024-03-08T02:44:21;16.85;;;15.45;;
4634;SDS011;2330;48.158;11.816;2024-03-08T02:46:48;17.95;;;16.30;;
4634;SDS011;2330;48.158;11.816;2024-03-08T02:49:16;19.42;;;17.52;;
4634;SDS011;2330;48.158;11.816;2024-03-08T02:51:43;18.73;;;17.13;;
4634;SDS011;2330;48.158;11.816;2024-03-08T02:54:10;18.60;;;16.88;;
4634;SDS011;2330;48.158;11.816;2024-03-08T02:56:37;17.90;;;16.33;;
4634;SDS011;2330;48.158;11.816;2024-03-08T02:59:04;17.75;;;16.25;;
4634;SDS011;2330;48.158;11.816;2024-03-08T03:01:31;18.10;;;16.40;;
4634;SDS011;2330;48.158;11.816;2024-03-08T03:03:58;17.73;;;16.13;;
4634;SDS011;2330;48.158;11.816;2024-03-08T03:06:25;19.13;;;17.33;;
4634;SDS011;2330;48.158;11.816;2024-03-08T03:08:52;18.50;;;16.67;;
4634;SDS011;2330;48.158;11.816;2024-03-08T03:11:19;18.98;;;17.33;;
4634;SDS011;2330;48.158;11.816;2024-03-08T03:13:45;17.58;;;15.98;;
4634;SDS011;2330;48.158;11.816;2024-03-08T03:16:18;18.90;;;17.20;;
4634;SDS011;2330;48.158;11.816;2024-03-08T03:18:49;17.73;;;16.20;;
4634;SDS011;2330;48.158;11.816;2024-03-08T03:21:15;18.63;;;16.95;;
4634;SDS011;2330;48.158;11.816;2024-03-08T03:23:43;19.63;;;17.70;;
4634;SDS011;2330;48.158;11.816;2024-03-08T03:26:10;19.50;;;17.52;;
4634;SDS011;2330;48.158;11.816;2024-03-08T03:28:38;18.10;;;16.30;;
4634;SDS011;2330;48.158;11.816;2024-03-08T03:31:08;19.38;;;17.38;;
4634;SDS011;2330;48.158;11.816;2024-03-08T03:33:40;19.35;;;17.65;;
4634;SDS011;2330;48.158;11.816;2024-03-08T03:36:07;20.90;;;18.70;;
4634;SDS011;2330;48.158;11.816;2024-03-08T03:38:36;20.20;;;18.30;;
4634;SDS011;2330;48.158;11.816;2024-03-08T03:41:03;20.35;;;18.50;;
4634;SDS011;2330;48.158;11.816;2024-03-08T03:43:37;19.27;;;17.58;;
4634;SDS011;2330;48.158;11.816;2024-03-08T03:46:07;21.23;;;19.27;;
4634;SDS011;2330;48.158;11.816;2024-03-08T03:48:37;21.80;;;19.80;;
4634;SDS011;2330;48.158;11.816;2024-03-08T03:51:04;23.35;;;21.20;;
4634;SDS011;2330;48.158;11.816;2024-03-08T03:53:31;22.20;;;20.20;;
4634;SDS011;2330;48.158;11.816;2024-03-08T03:55:58;19.58;;;17.88;;
4634;SDS011;2330;48.158;11.816;2024-03-08T03:58:25;20.98;;;19.05;;
4634;SDS011;2330;48.158;11.816;2024-03-08T04:00:53;23.52;;;21.33;;
4634;SDS011;2330;48.158;11.816;2024-03-08T04:03:20;22.75;;;20.70;;
4634;SDS011;2330;48.158;11.816;2024-03-08T04:05:47;24.33;;;22.13;;
4634;SDS011;2330;48.158;11.816;2024-03-08T04:08:13;24.42;;;22.20;;
4634;SDS011;2330;48.158;11.816;2024-03-08T04:10:40;23.83;;;21.63;;
4634;SDS011;2330;48.158;11.816;2024-03-08T04:13:10;23.58;;;21.48;;
4634;SDS011;2330;48.158;11.816;2024-03-08T04:15:37;25.15;;;22.92;;
4634;SDS011;2330;48.158;11.816;2024-03-08T04:18:04;25.58;;;23.23;;
4634;SDS011;2330;48.158;11.816;2024-03-08T04:20:31;24.75;;;22.55;;
4634;SDS011;2330;48.158;11.816;2024-03-08T04:22:57;24.90;;;22.58;;
4634;SDS011;2330;48.158;11.816;2024-03-08T04:25:25;24.70;;;22.60;;
4634;SDS011;2330;48.158;11.816;2024-03-08T04:27:53;26.33;;;24.02;;
4634;SDS011;2330;48.158;11.816;2024-03-08T04:30:20;25.13;;;22.92;;
4634;SDS011;2330;48.158;11.816;2024-03-08T04:32:47;27.13;;;24.83;;
4634;SDS011;2330;48.158;11.816;2024-03-08T04:35:15;25.63;;;23.30;;
4634;SDS011;2330;48.158;11.816;2024-03-08T04:37:42;28.50;;;25.90;;
4634;SDS011;2330;48.158;11.816;2024-03-08T04:40:09;29.20;;;26.50;;
4634;SDS011;2330;48.158;11.816;2024-03-08T04:42:37;27.88;;;25.30;;
4634;SDS011;2330;48.158;11.816;2024-03-08T04:45:05;28.80;;;26.15;;
4634;SDS011;2330;48.158;11.816;2024-03-08T04:47:34;27.58;;;24.88;;
4634;SDS011;2330;48.158;11.816;2024-03-08T04:50:03;28.70;;;26.00;;
4634;SDS011;2330;48.158;11.816;2024-03-08T04:52:30;28.30;;;25.60;;
4634;SDS011;2330;48.158;11.816;2024-03-08T04:54:57;29.48;;;26.67;;
4634;SDS011;2330;48.158;11.816;2024-03-08T04:57:24;30.08;;;27.15;;
4634;SDS011;2330;48.158;11.816;2024-03-08T04:59:52;29.70;;;26.92;;
4634;SDS011;2330;48.158;11.816;2024-03-08T05:02:18;32.03;;;28.95;;
4634;SDS011;2330;48.158;11.816;2024-03-08T05:04:45;31.85;;;28.50;;
4634;SDS011;2330;48.158;11.816;2024-03-08T05:07:12;31.67;;;28.40;;
4634;SDS011;2330;48.158;11.816;2024-03-08T05:09:39;32.88;;;29.48;;
4634;SDS011;2330;48.158;11.816;2024-03-08T05:12:07;32.40;;;29.20;;
4634;SDS011;2330;48.158;11.816;2024-03-08T05:14:34;31.55;;;28.50;;
4634;SDS011;2330;48.158;11.816;2024-03-08T05:17:01;34.08;;;30.50;;
4634;SDS011;2330;48.158;11.816;2024-03-08T05:19:28;33.88;;;30.65;;
4634;SDS011;2330;48.158;11.816;2024-03-08T05:22:00;34.30;;;31.08;;
4634;SDS011;2330;48.158;11.816;2024-03-08T05:24:27;34.08;;;30.67;;
4634;SDS011;2330;48.158;11.816;2024-03-08T05:26:54;36.25;;;32.63;;
4634;SDS011;2330;48.158;11.816;2024-03-08T05:29:20;35.00;;;31.50;;
4634;SDS011;2330;48.158;11.816;2024-03-08T05:31:48;32.67;;;29.58;;
4634;SDS011;2330;48.158;11.816;2024-03-08T05:34:16;33.85;;;30.45;;
4634;SDS011;2330;48.158;11.816;2024-03-08T05:36:43;34.10;;;30.80;;
4634;SDS011;2330;48.158;11.816;2024-03-08T05:39:14;34.40;;;31.20;;
4634;SDS011;2330;48.158;11.816;2024-03-08T05:41:44;33.63;;;30.42;;
4634;SDS011;2330;48.158;11.816;2024-03-08T05:44:14;32.13;;;28.98;;
4634;SDS011;2330;48.158;11.816;2024-03-08T05:46:43;32.78;;;29.55;;
4634;SDS011;2330;48.158;11.816;2024-03-08T05:49:10;33.60;;;30.10;;
4634;SDS011;2330;48.158;11.816;2024-03-08T05:51:39;31.08;;;27.92;;
4634;SDS011;2330;48.158;11.816;2024-03-08T05:54:07;33.70;;;30.10;;
4634;SDS011;2330;48.158;11.816;2024-03-08T05:56:37;34.90;;;31.10;;
4634;SDS011;2330;48.158;11.816;2024-03-08T05:59:07;33.00;;;29.63;;
4634;SDS011;2330;48.158;11.816;2024-03-08T06:01:33;34.42;;;30.80;;
4634;SDS011;2330;48.158;11.816;2024-03-08T06:04:03;33.83;;;30.40;;
4634;SDS011;2330;48.158;11.816;2024-03-08T06:06:30;32.53;;;29.17;;
4634;SDS011;2330;48.158;11.816;2024-03-08T06:08:57;33.75;;;30.35;;
4634;SDS011;2330;48.158;11.816;2024-03-08T06:11:25;31.10;;;27.88;;
4634;SDS011;2330;48.158;11.816;2024-03-08T06:13:57;31.98;;;28.65;;
4634;SDS011;2330;48.158;11.816;2024-03-08T06:16:26;32.40;;;29.13;;
4634;SDS011;2330;48.158;11.816;2024-03-08T06:18:56;35.42;;;31.73;;
4634;SDS011;2330;48.158;11.816;2024-03-08T06:21:24;34.47;;;30.92;;
4634;SDS011;2330;48.158;11.816;2024-03-08T06:23:53;34.35;;;30.65;;
4634;SDS011;2330;48.158;11.816;2024-03-08T06:26:21;32.00;;;28.83;;
4634;SDS011;2330;48.158;11.816;2024-03-08T06:28:48;34.97;;;31.35;;
4634;SDS011;2330;48.158;11.816;2024-03-08T06:31:15;35.42;;;31.73;;
4634;SDS011;2330;48.158;11.816;2024-03-08T06:33:42;34.33;;;28.75;;
4634;SDS011;2330;48.158;11.816;2024-03-08T06:36:09;33.00;;;29.63;;
4634;SDS011;2330;48.158;11.816;2024-03-08T06:38:38;32.72;;;29.50;;
4634;SDS011;2330;48.158;11.816;2024-03-08T06:41:09;36.15;;;32.47;;
4634;SDS011;2330;48.158;11.816;2024-03-08T06:43:42;33.55;;;30.05;;
4634;SDS011;2330;48.158;11.816;2024-03-08T06:46:09;34.20;;;30.67;;
4634;SDS011;2330;48.158;11.816;2024-03-08T06:48:38;33.72;;;30.40;;
4634;SDS011;2330;48.158;11.816;2024-03-08T06:51:06;35.00;;;31.40;;
4634;SDS011;2330;48.158;11.816;2024-03-08T06:53:33;32.17;;;28.88;;
4634;SDS011;2330;48.158;11.816;2024-03-08T06:56:01;32.47;;;29.17;;
4634;SDS011;2330;48.158;11.816;2024-03-08T06:58:29;33.00;;;29.73;;
4634;SDS011;2330;48.158;11.816;2024-03-08T07:00:55;30.83;;;27.83;;
4634;SDS011;2330;48.158;11.816;2024-03-08T07:03:27;30.98;;;27.77;;
4634;SDS011;2330;48.158;11.816;2024-03-08T07:05:56;29.38;;;26.48;;
4634;SDS011;2330;48.158;11.816;2024-03-08T07:08:27;30.35;;;27.27;;
4634;SDS011;2330;48.158;11.816;2024-03-08T07:10:54;29.23;;;26.48;;
4634;SDS011;2330;48.158;11.816;2024-03-08T07:13:21;29.02;;;26.02;;
4634;SDS011;2330;48.158;11.816;2024-03-08T07:15:48;28.52;;;25.33;;
4634;SDS011;2330;48.158;11.816;2024-03-08T07:18:15;28.67;;;25.75;;
4634;SDS011;2330;48.158;11.816;2024-03-08T07:20:42;27.08;;;24.25;;
4634;SDS011;2330;48.158;11.816;2024-03-08T07:23:10;27.35;;;24.55;;
4634;SDS011;2330;48.158;11.816;2024-03-08T07:25:37;27.17;;;24.42;;
4634;SDS011;2330;48.158;11.816;2024-03-08T07:28:05;25.67;;;23.02;;
4634;SDS011;2330;48.158;11.816;2024-03-08T07:30:37;25.60;;;23.15;;
4634;SDS011;2330;48.158;11.816;2024-03-08T07:33:10;25.83;;;23.13;;
4634;SDS011;2330;48.158;11.816;2024-03-08T07:35:41;25.23;;;22.73;;
4634;SDS011;2330;48.158;11.816;2024-03-08T07:38:11;24.77;;;22.33;;
4634;SDS011;2330;48.158;11.816;2024-03-08T07:40:38;25.25;;;22.60;;
4634;SDS011;2330;48.158;11.816;2024-03-08T07:43:12;23.90;;;21.33;;
4634;SDS011;2330;48.158;11.816;2024-03-08T07:45:39;25.30;;;22.63;;
4634;SDS011;2330;48.158;11.816;2024-03-08T07:48:06;22.70;;;20.58;;
4634;SDS011;2330;48.158;11.816;2024-03-08T07:50:37;22.52;;;20.23;;
4634;SDS011;2330;48.158;11.816;2024-03-08T07:53:08;22.13;;;19.83;;
4634;SDS011;2330;48.158;11.816;2024-03-08T07:55:35;22.48;;;20.27;;
4634;SDS011;2330;48.158;11.816;2024-03-08T07:58:02;23.17;;;20.77;;
4634;SDS011;2330;48.158;11.816;2024-03-08T08:00:30;23.80;;;21.35;;
4634;SDS011;2330;48.158;11.816;2024-03-08T08:03:00;22.95;;;20.60;;
4634;SDS011;2330;48.158;11.816;2024-03-08T08:05:27;23.63;;;21.17;;
4634;SDS011;2330;48.158;11.816;2024-03-08T08:07:54;22.58;;;20.38;;
4634;SDS011;2330;48.158;11.816;2024-03-08T08:10:21;22.17;;;19.77;;
4634;SDS011;2330;48.158;11.816;2024-03-08T08:12:48;22.05;;;20.10;;
4634;SDS011;2330;48.158;11.816;2024-03-08T08:15:17;21.55;;;19.40;;
4634;SDS011;2330;48.158;11.816;2024-03-08T08:17:44;21.50;;;19.40;;
4634;SDS011;2330;48.158;11.816;2024-03-08T08:20:12;21.95;;;19.77;;
4634;SDS011;2330;48.158;11.816;2024-03-08T08:22:42;21.35;;;19.25;;
4634;SDS011;2330;48.158;11.816;2024-03-08T08:25:10;22.38;;;20.08;;
4634;SDS011;2330;48.158;11.816;2024-03-08T08:27:41;23.40;;;21.10;;
4634;SDS011;2330;48.158;11.816;2024-03-08T08:30:11;21.83;;;19.60;;
4634;SDS011;2330;48.158;11.816;2024-03-08T08:32:38;20.73;;;18.55;;
4634;SDS011;2330;48.158;11.816;2024-03-08T08:35:06;21.42;;;19.23;;
4634;SDS011;2330;48.158;11.816;2024-03-08T08:37:34;22.27;;;19.88;;
4634;SDS011;2330;48.158;11.816;2024-03-08T08:40:03;23.93;;;21.60;;
4634;SDS011;2330;48.158;11.816;2024-03-08T08:42:36;23.90;;;21.70;;
4634;SDS011;2330;48.158;11.816;2024-03-08T08:45:06;21.00;;;19.07;;
4634;SDS011;2330;48.158;11.816;2024-03-08T08:47:43;21.87;;;19.70;;
4634;SDS011;2330;48.158;11.816;2024-03-08T08:50:12;20.23;;;18.33;;
4634;SDS011;2330;48.158;11.816;2024-03-08T08:52:39;20.33;;;18.37;;
4634;SDS011;2330;48.158;11.816;2024-03-08T08:55:07;24.17;;;21.77;;
4634;SDS011;2330;48.158;11.816;2024-03-08T08:57:34;25.70;;;23.13;;
4634;SDS011;2330;48.158;11.816;2024-03-08T09:00:02;21.70;;;19.63;;
4634;SDS011;2330;48.158;11.816;2024-03-08T09:02:34;20.15;;;18.17;;
4634;SDS011;2330;48.158;11.816;2024-03-08T09:05:01;20.17;;;18.20;;
4634;SDS011;2330;48.158;11.816;2024-03-08T09:07:29;21.70;;;19.40;;
4634;SDS011;2330;48.158;11.816;2024-03-08T09:09:56;19.83;;;17.73;;
4634;SDS011;2330;48.158;11.816;2024-03-08T09:12:25;23.60;;;19.00;;
4634;SDS011;2330;48.158;11.816;2024-03-08T09:14:52;21.00;;;18.90;;
4634;SDS011;2330;48.158;11.816;2024-03-08T09:17:19;22.93;;;20.73;;
4634;SDS011;2330;48.158;11.816;2024-03-08T09:19:47;19.90;;;18.00;;
4634;SDS011;2330;48.158;11.816;2024-03-08T09:22:14;19.20;;;17.37;;
4634;SDS011;2330;48.158;11.816;2024-03-08T09:24:41;20.10;;;18.10;;
4634;SDS011;2330;48.158;11.816;2024-03-08T09:27:09;19.10;;;17.30;;
4634;SDS011;2330;48.158;11.816;2024-03-08T09:29:36;19.43;;;17.60;;
4634;SDS011;2330;48.158;11.816;2024-03-08T09:32:03;20.10;;;18.20;;
4634;SDS011;2330;48.158;11.816;2024-03-08T09:34:30;20.90;;;18.90;;
4634;SDS011;2330;48.158;11.816;2024-03-08T09:37:03;20.37;;;18.37;;
4634;SDS011;2330;48.158;11.816;2024-03-08T09:39:30;19.63;;;17.73;;
4634;SDS011;2330;48.158;11.816;2024-03-08T09:42:00;19.40;;;17.50;;
4634;SDS011;2330;48.158;11.816;2024-03-08T09:44:28;20.57;;;18.57;;
4634;SDS011;2330;48.158;11.816;2024-03-08T09:46:55;20.47;;;18.57;;
4634;SDS011;2330;48.158;11.816;2024-03-08T09:49:24;20.30;;;18.40;;
4634;SDS011;2330;48.158;11.816;2024-03-08T09:51:51;17.93;;;16.17;;
4634;SDS011;2330;48.158;11.816;2024-03-08T09:54:19;17.77;;;16.20;;
4634;SDS011;2330;48.158;11.816;2024-03-08T09:56:50;19.20;;;17.50;;
4634;SDS011;2330;48.158;11.816;2024-03-08T09:59:18;17.60;;;15.90;;
4634;SDS011;2330;48.158;11.816;2024-03-08T10:01:54;18.70;;;16.90;;
4634;SDS011;2330;48.158;11.816;2024-03-08T10:04:22;19.00;;;17.20;;
4634;SDS011;2330;48.158;11.816;2024-03-08T10:06:49;17.83;;;16.20;;
4634;SDS011;2330;48.158;11.816;2024-03-08T10:09:16;20.10;;;18.10;;
4634;SDS011;2330;48.158;11.816;2024-03-08T10:11:43;19.27;;;17.47;;
4634;SDS011;2330;48.158;11.816;2024-03-08T10:14:10;19.53;;;17.63;;
4634;SDS011;2330;48.158;11.816;2024-03-08T10:16:38;19.47;;;17.50;;
4634;SDS011;2330;48.158;11.816;2024-03-08T10:19:07;19.20;;;17.40;;
4634;SDS011;2330;48.158;11.816;2024-03-08T10:21:34;17.90;;;16.20;;
4634;SDS011;2330;48.158;11.816;2024-03-08T10:24:02;18.93;;;16.90;;
4634;SDS011;2330;48.158;11.816;2024-03-08T10:26:29;18.13;;;16.33;;
4634;SDS011;2330;48.158;11.816;2024-03-08T10:28:57;18.77;;;16.90;;
4634;SDS011;2330;48.158;11.816;2024-03-08T10:31:24;19.60;;;17.70;;
4634;SDS011;2330;48.158;11.816;2024-03-08T10:33:52;17.30;;;15.60;;
4634;SDS011;2330;48.158;11.816;2024-03-08T10:36:19;17.80;;;16.00;;
4634;SDS011;2330;48.158;11.816;2024-03-08T10:38:46;19.30;;;17.40;;
4634;SDS011;2330;48.158;11.816;2024-03-08T10:41:14;18.77;;;16.97;;
4634;SDS011;2330;48.158;11.816;2024-03-08T10:46:30;18.60;;;16.80;;
4634;SDS011;2330;48.158;11.816;2024-03-08T10:49:06;17.57;;;15.77;;
4634;SDS011;2330;48.158;11.816;2024-03-08T10:51:38;17.00;;;15.40;;
4634;SDS011;2330;48.158;11.816;2024-03-08T10:54:08;15.27;;;13.87;;
4634;SDS011;2330;48.158;11.816;2024-03-08T10:56:38;16.60;;;15.00;;
4634;SDS011;2330;48.158;11.816;2024-03-08T10:59:08;15.60;;;14.13;;
4634;SDS011;2330;48.158;11.816;2024-03-08T11:01:35;17.33;;;15.57;;
4634;SDS011;2330;48.158;11.816;2024-03-08T11:04:05;17.57;;;15.83;;
4634;SDS011;2330;48.158;11.816;2024-03-08T11:09:08;18.67;;;16.90;;
4634;SDS011;2330;48.158;11.816;2024-03-08T11:12:11;18.60;;;16.80;;
4634;SDS011;2330;48.158;11.816;2024-03-08T11:14:57;16.77;;;15.17;;
4634;SDS011;2330;48.158;11.816;2024-03-08T11:19:57;18.63;;;16.90;;
4634;SDS011;2330;48.158;11.816;2024-03-08T11:22:28;17.73;;;16.03;;
4634;SDS011;2330;48.158;11.816;2024-03-08T11:25:02;16.63;;;15.17;;
4634;SDS011;2330;48.158;11.816;2024-03-08T11:27:38;16.23;;;14.73;;
4634;SDS011;2330;48.158;11.816;2024-03-08T11:30:05;18.00;;;16.23;;
4634;SDS011;2330;48.158;11.816;2024-03-08T11:32:50;18.03;;;16.23;;
4634;SDS011;2330;48.158;11.816;2024-03-08T11:35:20;17.90;;;16.20;;
4634;SDS011;2330;48.158;11.816;2024-03-08T11:37:50;16.80;;;15.23;;
4634;SDS011;2330;48.158;11.816;2024-03-08T11:40:17;16.70;;;15.00;;
4634;SDS011;2330;48.158;11.816;2024-03-08T11:42:46;18.40;;;16.60;;
4634;SDS011;2330;48.158;11.816;2024-03-08T11:45:15;17.23;;;15.43;;
4634;SDS011;2330;48.158;11.816;2024-03-08T11:47:44;16.40;;;14.80;;
4634;SDS011;2330;48.158;11.816;2024-03-08T11:50:15;16.97;;;15.37;;
4634;SDS011;2330;48.158;11.816;2024-03-08T11:52:43;16.17;;;14.60;;
4634;SDS011;2330;48.158;11.816;2024-03-08T11:55:10;16.70;;;15.00;;
4634;SDS011;2330;48.158;11.816;2024-03-08T11:57:39;15.63;;;14.03;;
4634;SDS011;2330;48.158;11.816;2024-03-08T12:00:06;15.80;;;14.20;;
4634;SDS011;2330;48.158;11.816;2024-03-08T12:03:00;15.90;;;14.20;;
4634;SDS011;2330;48.158;11.816;2024-03-08T12:05:31;15.03;;;13.63;;
4634;SDS011;2330;48.158;11.816;2024-03-08T12:08:00;15.33;;;13.83;;
4634;SDS011;2330;48.158;11.816;2024-03-08T12:10:28;15.40;;;13.90;;
4634;SDS011;2330;48.158;11.816;2024-03-08T12:12:57;16.60;;;14.93;;
4634;SDS011;2330;48.158;11.816;2024-03-08T12:15:29;16.17;;;14.47;;
4634;SDS011;2330;48.158;11.816;2024-03-08T12:17:59;15.67;;;14.17;;
4634;SDS011;2330;48.158;11.816;2024-03-08T12:20:28;15.50;;;14.10;;
4634;SDS011;2330;48.158;11.816;2024-03-08T12:22:58;14.60;;;13.20;;
4634;SDS011;2330;48.158;11.816;2024-03-08T12:25:27;13.80;;;12.40;;
4634;SDS011;2330;48.158;11.816;2024-03-08T12:28:06;13.30;;;12.00;;
4634;SDS011;2330;48.158;11.816;2024-03-08T12:30:44;15.20;;;13.70;;
4634;SDS011;2330;48.158;11.816;2024-03-08T12:33:23;13.47;;;12.07;;
4634;SDS011;2330;48.158;11.816;2024-03-08T12:35:53;16.00;;;14.40;;
4634;SDS011;2330;48.158;11.816;2024-03-08T12:38:22;14.30;;;13.10;;
4634;SDS011;2330;48.158;11.816;2024-03-08T12:40:59;14.20;;;12.80;;
4634;SDS011;2330;48.158;11.816;2024-03-08T12:43:28;13.50;;;12.20;;
4634;SDS011;2330;48.158;11.816;2024-03-08T12:45:58;14.03;;;12.63;;
4634;SDS011;2330;48.158;11.816;2024-03-08T12:48:25;14.00;;;12.70;;
4634;SDS011;2330;48.158;11.816;2024-03-08T12:50:51;14.23;;;12.90;;
4634;SDS011;2330;48.158;11.816;2024-03-08T12:53:20;15.27;;;13.70;;
4634;SDS011;2330;48.158;11.816;2024-03-08T12:55:49;15.10;;;13.60;;
4634;SDS011;2330;48.158;11.816;2024-03-08T12:58:16;14.47;;;12.97;;
4634;SDS011;2330;48.158;11.816;2024-03-08T13:00:43;14.63;;;13.23;;
4634;SDS011;2330;48.158;11.816;2024-03-08T13:03:10;14.60;;;13.20;;
4634;SDS011;2330;48.158;11.816;2024-03-08T13:05:38;13.33;;;12.03;;
4634;SDS011;2330;48.158;11.816;2024-03-08T13:08:09;14.17;;;12.73;;
4634;SDS011;2330;48.158;11.816;2024-03-08T13:10:39;13.47;;;11.83;;
4634;SDS011;2330;48.158;11.816;2024-03-08T13:13:06;19.53;;;13.40;;
4634;SDS011;2330;48.158;11.816;2024-03-08T13:15:36;13.83;;;12.53;;
4634;SDS011;2330;48.158;11.816;2024-03-08T13:18:02;13.90;;;12.50;;
4634;SDS011;2330;48.158;11.816;2024-03-08T13:20:29;13.30;;;11.90;;
4634;SDS011;2330;48.158;11.816;2024-03-08T13:23:08;13.47;;;12.17;;
4634;SDS011;2330;48.158;11.816;2024-03-08T13:25:35;13.10;;;11.90;;
4634;SDS011;2330;48.158;11.816;2024-03-08T13:28:04;13.93;;;12.60;;
4634;SDS011;2330;48.158;11.816;2024-03-08T13:30:32;12.30;;;10.97;;
4634;SDS011;2330;48.158;11.816;2024-03-08T13:32:59;14.00;;;12.60;;
4634;SDS011;2330;48.158;11.816;2024-03-08T13:35:26;14.20;;;12.67;;
4634;SDS011;2330;48.158;11.816;2024-03-08T13:37:56;13.20;;;11.90;;
4634;SDS011;2330;48.158;11.816;2024-03-08T13:40:23;13.40;;;12.10;;
4634;SDS011;2330;48.158;11.816;2024-03-08T13:42:50;12.70;;;11.47;;
4634;SDS011;2330;48.158;11.816;2024-03-08T13:45:17;13.77;;;12.53;;
4634;SDS011;2330;48.158;11.816;2024-03-08T13:47:49;15.00;;;13.60;;
4634;SDS011;2330;48.158;11.816;2024-03-08T13:50:18;14.50;;;13.10;;
4634;SDS011;2330;48.158;11.816;2024-03-08T13:52:48;16.47;;;14.90;;
4634;SDS011;2330;48.158;11.816;2024-03-08T13:55:21;14.73;;;13.27;;
4634;SDS011;2330;48.158;11.816;2024-03-08T13:57:49;13.67;;;12.27;;
4634;SDS011;2330;48.158;11.816;2024-03-08T14:00:19;13.53;;;12.13;;
4634;SDS011;2330;48.158;11.816;2024-03-08T14:02:51;15.83;;;13.87;;
4634;SDS011;2330;48.158;11.816;2024-03-08T14:05:17;11.83;;;10.83;;
4634;SDS011;2330;48.158;11.816;2024-03-08T14:07:46;13.10;;;11.80;;
4634;SDS011;2330;48.158;11.816;2024-03-08T14:10:16;13.87;;;12.47;;
4634;SDS011;2330;48.158;11.816;2024-03-08T14:12:46;14.03;;;12.43;;
4634;SDS011;2330;48.158;11.816;2024-03-08T14:15:15;13.77;;;12.47;;
4634;SDS011;2330;48.158;11.816;2024-03-08T14:17:42;13.47;;;12.17;;
4634;SDS011;2330;48.158;11.816;2024-03-08T14:20:13;13.57;;;12.27;;
4634;SDS011;2330;48.158;11.816;2024-03-08T14:22:40;14.33;;;12.83;;
4634;SDS011;2330;48.158;11.816;2024-03-08T14:25:07;14.87;;;13.47;;
4634;SDS011;2330;48.158;11.816;2024-03-08T14:27:43;14.00;;;12.70;;
4634;SDS011;2330;48.158;11.816;2024-03-08T14:30:11;15.20;;;13.70;;
4634;SDS011;2330;48.158;11.816;2024-03-08T14:32:38;15.00;;;13.50;;
4634;SDS011;2330;48.158;11.816;2024-03-08T14:35:07;17.10;;;14.63;;
4634;SDS011;2330;48.158;11.816;2024-03-08T14:37:37;13.50;;;12.30;;
4634;SDS011;2330;48.158;11.816;2024-03-08T14:40:04;13.47;;;12.03;;
4634;SDS011;2330;48.158;11.816;2024-03-08T14:42:32;16.10;;;12.60;;
4634;SDS011;2330;48.158;11.816;2024-03-08T14:44:58;14.40;;;13.00;;
4634;SDS011;2330;48.158;11.816;2024-03-08T14:47:26;12.27;;;11.17;;
4634;SDS011;2330;48.158;11.816;2024-03-08T14:49:54;13.40;;;12.10;;